Time;durP1;ratioP1;P1;durP2;ratioP2;P2;SDS_P1;SDS_P2;PMS_P1;PMS_P2;Temp;Humidity;BMP_temperature;BMP_pressure;BME280_temperature;BME280_humidity;BME280_pressure;Samples;Min_cycle;Max_cycle;Signal;HPM_P1;HPM_P2
2020/12/13 00:01:54;;;;;;;61.88;23.90;;;;;;;;;;6242975;22;20012;-65
2020/12/13 00:04:20;;;;;;;71.35;25.05;;;;;;;;;;6216895;23;20012;-66
2020/12/13 00:06:47;;;;;;;69.20;24.52;;;;;;;;;;6243529;23;20091;-66
2020/12/13 00:09:13;;;;;;;65.80;23.45;;;14.70;62.50;;;;;;6216642;23;20012;-67
2020/12/13 00:11:39;;;;;;;65.38;24.58;;;;;;;;;;6243352;23;20452;-66
2020/12/13 00:14:06;;;;;;;65.35;25.05;;;;;;;;;;6243550;23;20012;-67
2020/12/13 00:16:32;;;;;;;69.18;24.85;;;;;;;;;;6243429;23;20008;-67
2020/12/13 00:18:58;;;;;;;69.68;23.88;;;;;;;;;;6243481;23;20012;-67
2020/12/13 00:21:26;;;;;;;67.38;24.45;;;;;;;;;;6243035;23;20492;-65
2020/12/13 00:23:54;;;;;;;60.42;23.65;;;14.50;62.60;;;;;;6243367;23;20306;-66
2020/12/13 00:26:20;;;;;;;75.20;25.63;;;;;;;;;;6243152;23;20546;-66
2020/12/13 00:28:46;;;;;;;69.35;25.02;;;;;;;;;;6243418;23;20012;-65
2020/12/13 00:31:14;;;;;;;79.40;24.95;;;14.40;63.30;;;;;;6242929;23;20022;-66
2020/12/13 00:33:40;;;;;;;72.57;24.92;;;;;;;;;;6243453;23;20043;-66
2020/12/13 00:36:07;;;;;;;72.03;24.58;;;;;;;;;;6243273;23;20104;-66
2020/12/13 00:38:33;;;;;;;68.80;26.42;;;;;;;;;;6243107;23;20317;-66
2020/12/13 00:40:59;;;;;;;67.20;25.88;;;;;;;;;;6243633;23;20011;-66
2020/12/13 00:43:25;;;;;;;80.35;25.27;;;;;;;;;;6243517;23;20008;-65
2020/12/13 00:45:52;;;;;;;73.18;25.10;;;;;;;;;;6243466;23;20391;-65
2020/12/13 00:48:18;;;;;;;65.68;24.48;;;;;;;;;;6243213;23;20475;-65
2020/12/13 00:50:44;;;;;;;64.80;24.77;;;;;;;;;;6243408;23;20019;-64
2020/12/13 00:53:10;;;;;;;76.63;24.98;;;;;;;;;;6243888;23;20012;-65
2020/12/13 00:55:37;;;;;;;72.43;26.00;;;;;;;;;;6244964;23;20424;-66
2020/12/13 00:58:08;;;;;;;63.78;23.98;;;;;;;;;;6218382;23;20015;-66
2020/12/13 01:00:34;;;;;;;82.30;26.17;;;;;;;;;;6244771;23;20385;-65
2020/12/13 01:03:01;;;;;;;68.43;23.83;;;;;;;;;;6244813;23;20111;-65
2020/12/13 01:05:27;;;;;;;68.35;24.08;;;;;;;;;;6245055;23;20067;-64
2020/12/13 01:07:54;;;;;;;71.18;24.40;;;;;;;;;;6245048;23;20010;-64
2020/12/13 01:10:21;;;;;;;77.15;24.27;;;14.40;62.60;;;;;;6245025;23;20095;-66
2020/12/13 01:12:47;;;;;;;71.03;24.90;;;;;;;;;;6245091;23;20012;-64
2020/12/13 01:15:14;;;;;;;66.38;23.33;;;;;;;;;;6245096;23;20020;-65
2020/12/13 01:17:47;;;;;;;74.68;24.02;;;14.40;62.40;;;;;;6244968;23;20019;-64
2020/12/13 01:20:14;;;;;;;69.82;23.33;;;14.40;62.50;;;;;;6218356;23;20019;-65
2020/12/13 01:22:41;;;;;;;67.63;24.00;;;;;;;;;;6244943;23;20014;-65
2020/12/13 01:25:08;;;;;;;72.72;26.00;;;14.30;62.50;;;;;;6245161;23;20012;-65
2020/12/13 01:27:35;;;;;;;62.08;21.90;;;14.30;62.40;;;;;;6244929;23;20075;-65
2020/12/13 01:30:01;;;;;;;63.95;24.00;;;;;;;;;;6244187;23;20016;-66
2020/12/13 01:32:27;;;;;;;82.22;25.25;;;;;;;;;;6244984;23;20012;-65
2020/12/13 01:34:54;;;;;;;66.07;23.00;;;;;;;;;;6244446;23;20008;-65
2020/12/13 01:37:20;;;;;;;67.90;23.73;;;;;;;;;;6244490;23;20310;-65
2020/12/13 01:39:46;;;;;;;65.63;23.25;;;;;;;;;;6244824;23;20012;-65
2020/12/13 01:42:12;;;;;;;61.30;24.02;;;;;;;;;;6244551;23;20035;-65
2020/12/13 01:44:38;;;;;;;84.00;25.20;;;;;;;;;;6244509;23;20075;-66
2020/12/13 01:47:06;;;;;;;63.38;22.73;;;14.10;63.30;;;;;;6244753;23;20016;-65
2020/12/13 01:49:37;;;;;;;63.67;22.67;;;;;;;;;;6220473;23;20008;-66
2020/12/13 01:52:40;;;;;;;67.72;22.50;;;14.00;63.80;;;;;;6245552;23;20065;-65
2020/12/13 01:55:04;;;;;;;66.68;23.88;;;14.00;63.60;;;;;;6244638;23;20004;-65
2020/12/13 01:57:34;;;;;;;65.93;24.73;;;14.10;63.40;;;;;;6245003;23;20012;-64
2020/12/13 02:00:10;;;;;;;70.35;24.77;;;14.10;63.50;;;;;;6244086;23;20009;-64
2020/12/13 02:02:51;;;;;;;69.07;24.73;;;14.00;63.80;;;;;;6232294;23;20441;-63
2020/12/13 02:05:20;;;;;;;67.97;24.40;;;14.00;63.80;;;;;;6244053;22;20007;-66
2020/12/13 02:07:47;;;;;;;58.72;22.35;;;13.90;63.90;;;;;;6244373;22;20097;-64
2020/12/13 02:10:14;;;;;;;67.55;24.48;;;;;;;;;;6244719;22;20004;-65
2020/12/13 02:12:40;;;;;;;60.25;23.13;;;;;;;;;;6244559;23;20054;-65
2020/12/13 02:15:06;;;;;;;61.03;22.20;;;14.00;64.00;;;;;;6244104;23;20349;-66
2020/12/13 02:17:36;;;;;;;59.05;22.30;;;14.00;64.00;;;;;;6244110;22;20447;-65
2020/12/13 02:20:11;;;;;;;62.53;23.45;;;14.00;64.00;;;;;;6244533;22;20004;-66
2020/12/13 02:22:41;;;;;;;65.65;23.98;;;14.10;63.80;;;;;;6244241;22;20091;-65
2020/12/13 02:25:11;;;;;;;62.15;22.88;;;14.20;63.50;;;;;;6244544;22;20004;-65
2020/12/13 02:27:38;;;;;;;58.72;22.30;;;14.30;63.60;;;;;;6244325;22;20004;-64
2020/12/13 02:30:04;;;;;;;;;;;14.20;64.00;;;;;;6244889;22;20337;-65
2020/12/13 02:32:31;;;;;;;51.28;21.05;;;;;;;;;;6244273;22;20409;-65
2020/12/13 02:34:57;;;;;;;63.72;23.85;;;;;;;;;;6244192;22;20050;-66
2020/12/13 02:37:23;;;;;;;59.60;23.13;;;;;;;;;;6244085;23;20013;-65
2020/12/13 02:39:50;;;;;;;54.35;22.13;;;;;;;;;;6244147;23;20015;-66
2020/12/13 02:42:16;;;;;;;62.38;24.17;;;;;;;;;;6242400;23;20077;-66
2020/12/13 02:44:42;;;;;;;63.13;21.63;;;;;;;;;;6243865;22;20386;-65
2020/12/13 02:47:08;;;;;;;59.00;24.17;;;;;;;;;;6244248;23;20008;-66
2020/12/13 02:49:35;;;;;;;57.58;22.05;;;;;;;;;;6244288;22;20066;-65
2020/12/13 02:52:01;;;;;;;56.65;23.13;;;;;;;;;;6242159;23;20008;-66
2020/12/13 02:54:27;;;;;;;56.08;22.25;;;;;;;;;;6244060;22;20016;-66
2020/12/13 02:56:54;;;;;;;56.97;23.77;;;;;;;;;;6244129;22;20008;-67
2020/12/13 02:59:20;;;;;;;57.92;22.05;;;;;;;;;;6243707;23;20015;-65
2020/12/13 03:01:46;;;;;;;54.15;22.05;;;;;;;;;;6243695;22;20016;-66
2020/12/13 03:04:12;;;;;;;55.20;22.33;;;;;;;;;;6243975;23;20012;-66
2020/12/13 03:06:38;;;;;;;58.00;22.40;;;;;;;;;;6243860;23;20008;-66
2020/12/13 03:09:05;;;;;;;68.22;23.55;;;;;;;;;;6243729;23;20026;-66
2020/12/13 03:11:31;;;;;;;58.53;21.98;;;;;;;;;;6216999;23;20030;-65
2020/12/13 03:13:57;;;;;;;56.25;21.60;;;;;;;;;;6243541;23;20460;-66
2020/12/13 03:16:24;;;;;;;60.22;22.67;;;;;;;;;;6243264;23;20374;-66
2020/12/13 03:18:50;;;;;;;57.17;22.15;;;;;;;;;;6243588;23;20392;-66
2020/12/13 03:21:16;;;;;;;53.60;21.75;;;;;;;;;;6216908;23;20062;-66
2020/12/13 03:23:43;;;;;;;45.33;21.48;;;;;;;;;;6244042;23;20015;-67
2020/12/13 03:26:09;;;;;;;56.05;20.70;;;;;;;;;;6243492;23;20495;-67
2020/12/13 03:28:35;;;;;;;53.38;21.50;;;;;;;;;;6243642;23;20165;-66
2020/12/13 03:31:01;;;;;;;55.60;20.92;;;;;;;;;;6243251;23;20012;-66
2020/12/13 03:33:28;;;;;;;52.47;19.60;;;;;;;;;;6243789;23;20014;-66
2020/12/13 03:35:54;;;;;;;52.17;19.42;;;;;;;;;;6243597;23;20019;-67
2020/12/13 03:38:20;;;;;;;56.63;20.77;;;;;;;;;;6243619;23;20036;-67
2020/12/13 03:40:46;;;;;;;46.78;19.30;;;;;;;;;;6243720;23;20008;-67
2020/12/13 03:43:13;;;;;;;46.00;19.95;;;;;;;;;;6243848;23;20091;-67
2020/12/13 03:45:39;;;;;;;50.83;19.75;;;;;;;;;;6243952;23;20071;-67
2020/12/13 03:48:05;;;;;;;48.17;18.67;;;;;;;;;;6243667;23;20004;-66
2020/12/13 03:50:38;;;;;;;46.83;20.55;;;;;;;;;;6243758;23;20040;-69
2020/12/13 03:53:13;;;;;;;42.97;18.13;;;14.20;63.50;;;;;;6243431;23;20081;-66
2020/12/13 03:55:41;;;;;;;52.87;19.33;;;14.10;63.80;;;;;;6216754;23;20407;-67
2020/12/13 03:58:07;;;;;;;48.25;19.98;;;;;;;;;;6243488;23;20138;-67
2020/12/13 04:00:34;;;;;;;44.25;19.80;;;14.10;63.90;;;;;;6243400;23;20126;-65
2020/12/13 04:03:04;;;;;;;41.55;18.15;;;;;;;;;;6243732;23;20016;-66
2020/12/13 04:05:30;;;;;;;47.67;18.58;;;;;;;;;;6243556;23;20011;-65
2020/12/13 04:07:57;;;;;;;44.83;19.10;;;;;;;;;;6243570;23;20008;-66
2020/12/13 04:10:25;;;;;;;41.50;18.27;;;;;;;;;;6243706;23;20044;-67
2020/12/13 04:12:51;;;;;;;46.60;18.90;;;;;;;;;;6243614;23;20012;-66
2020/12/13 04:15:17;;;;;;;51.88;19.20;;;;;;;;;;6243296;23;20410;-66
2020/12/13 04:17:44;;;;;;;36.95;16.13;;;;;;;;;;6243278;23;20095;-67
2020/12/13 04:20:11;;;;;;;35.83;19.38;;;;;;;;;;6243431;23;20015;-67
2020/12/13 04:22:37;;;;;;;39.10;18.65;;;;;;;;;;6243659;23;20091;-67
2020/12/13 04:25:04;;;;;;;36.20;17.30;;;14.00;63.90;;;;;;6243052;23;20332;-67
2020/12/13 04:27:30;;;;;;;;;;;14.00;64.40;;;;;;6244188;23;20008;-67
2020/12/13 04:29:56;;;;;;;37.92;16.58;;;;;;;;;;6244999;23;19982;-66
2020/12/13 04:32:23;;;;;;;32.97;16.90;;;13.80;64.30;;;;;;6245376;23;20031;-66
2020/12/13 04:34:50;;;;;;;38.70;16.73;;;;;;;;;;6245045;23;20405;-67
2020/12/13 04:37:16;;;;;;;38.30;15.98;;;;;;;;;;6245422;23;20066;-67
2020/12/13 04:39:42;;;;;;;39.67;17.17;;;;;;;;;;6245694;23;20000;-67
2020/12/13 04:42:09;;;;;;;32.85;15.65;;;;;;;;;;6245326;23;20441;-66
2020/12/13 04:44:37;;;;;;;34.25;15.93;;;13.90;64.00;;;;;;6245363;23;20007;-66
2020/12/13 04:47:05;;;;;;;33.42;15.80;;;13.80;64.30;;;;;;6247271;23;20419;-66
2020/12/13 04:49:33;;;;;;;38.55;17.48;;;13.80;64.40;;;;;;6220775;23;20009;-67
2020/12/13 04:52:00;;;;;;;32.13;15.52;;;13.70;64.20;;;;;;6245150;23;20008;-66
2020/12/13 04:54:28;;;;;;;37.45;16.23;;;13.80;64.40;;;;;;6245205;23;20004;-67
2020/12/13 04:56:55;;;;;;;32.88;16.45;;;13.70;64.60;;;;;;6245368;23;20193;-68
2020/12/13 04:59:22;;;;;;;37.00;16.73;;;;;;;;;;6244852;23;20073;-67
2020/12/13 05:01:48;;;;;;;30.77;15.25;;;;;;;;;;6245128;23;20101;-67
2020/12/13 05:04:15;;;;;;;37.72;16.35;;;;;;;;;;6244994;23;20075;-67
2020/12/13 05:06:42;;;;;;;36.00;15.55;;;13.80;64.30;;;;;;6245091;23;20004;-67
2020/12/13 05:09:09;;;;;;;43.42;17.92;;;;;;;;;;6244982;23;20004;-66
2020/12/13 05:11:42;;;;;;;33.63;15.45;;;13.80;64.00;;;;;;6245128;23;20008;-67
2020/12/13 05:14:09;;;;;;;38.05;15.20;;;;;;;;;;6245189;23;20048;-65
2020/12/13 05:16:35;;;;;;;33.25;14.73;;;;;;;;;;6244996;23;20012;-65
2020/12/13 05:19:01;;;;;;;38.45;16.17;;;;;;;;;;6218161;23;20016;-67
2020/12/13 05:21:28;;;;;;;29.92;15.40;;;;;;;;;;6218158;23;20008;-67
2020/12/13 05:23:54;;;;;;;36.08;14.95;;;;;;;;;;6245154;23;20019;-69
2020/12/13 05:26:22;;;;;;;39.55;15.73;;;13.80;63.60;;;;;;6245107;23;20130;-68
2020/12/13 05:28:50;;;;;;;28.65;14.43;;;13.80;64.00;;;;;;6244524;23;20031;-67
2020/12/13 05:31:24;;;;;;;28.42;13.65;;;13.50;64.30;;;;;;6244776;23;20016;-68
2020/12/13 05:33:53;;;;;;;34.17;14.95;;;;;;;;;;6217855;23;20039;-68
2020/12/13 05:36:21;;;;;;;33.25;14.30;;;;;;;;;;6244598;23;20091;-67
2020/12/13 05:38:47;;;;;;;33.15;15.20;;;;;;;;;;6240404;23;20516;-67
2020/12/13 05:41:14;;;;;;;;;;;13.60;64.30;;;;;;6243818;23;20318;-67
2020/12/13 05:43:48;;;;;;;40.28;14.32;;;;;;;;;;6244675;23;19904;-68
2020/12/13 05:51:38;;;;;;;32.80;14.95;;;;;;;;;;6243633;23;20035;-67
2020/12/13 05:54:12;;;;;;;33.42;15.95;;;14.00;62.80;;;;;;6244446;23;20062;-68
2020/12/13 05:56:39;;;;;;;31.65;14.45;;;14.00;62.90;;;;;;6242479;23;20004;-68
2020/12/13 05:59:06;;;;;;;31.98;15.48;;;13.90;62.90;;;;;;6243279;23;20034;-67
2020/12/13 06:01:31;;;;;;;;;;;14.10;63.50;;;;;;6244617;23;20066;-67
2020/12/13 06:04:00;;;;;;;41.75;14.32;;;13.90;62.70;;;;;;6215567;23;19903;-67
2020/12/13 06:06:26;;;;;;;37.90;16.25;;;;;;;;;;6216596;23;20464;-69
2020/12/13 06:09:12;;;;;;;39.47;15.88;;;14.00;62.40;;;;;;6243708;23;20038;-70
2020/12/13 06:11:48;;;;;;;43.30;15.48;;;14.00;62.50;;;;;;6244403;23;20008;-67
2020/12/13 06:14:20;;;;;;;39.47;15.63;;;14.00;62.70;;;;;;6244590;23;20019;-68
2020/12/13 06:16:47;;;;;;;30.27;15.57;;;14.00;62.60;;;;;;6244126;23;20004;-68
2020/12/13 06:19:24;;;;;;;31.23;15.25;;;13.90;62.60;;;;;;6244193;23;20097;-69
2020/12/13 06:21:51;;;;;;;36.55;15.65;;;;;;;;;;6243966;23;20008;-68
2020/12/13 06:24:17;;;;;;;35.22;15.27;;;;;;;;;;6243898;23;20019;-70
2020/12/13 06:26:44;;;;;;;29.63;15.13;;;13.80;63.10;;;;;;6244003;23;20008;-67
2020/12/13 06:29:10;;;;;;;33.78;15.65;;;;;;;;;;6244146;23;20364;-68
2020/12/13 06:31:38;;;;;;;33.08;14.98;;;13.80;62.70;;;;;;6244218;23;20012;-68
2020/12/13 06:34:04;;;;;;;33.40;15.77;;;13.90;62.80;;;;;;6244035;23;20817;-68
2020/12/13 06:36:36;;;;;;;29.60;15.43;;;13.90;62.60;;;;;;6243604;23;20015;-68
2020/12/13 06:39:12;;;;;;;28.35;15.55;;;14.00;62.20;;;;;;6240753;23;20012;-68
2020/12/13 06:41:50;;;;;;;31.13;13.85;;;14.00;62.20;;;;;;6244344;23;20036;-68
2020/12/13 06:44:17;;;;;;;25.77;13.73;;;14.00;62.20;;;;;;6244107;23;20087;-67
2020/12/13 06:46:43;;;;;;;;;;;14.20;62.80;;;;;;6244167;23;20083;-68
2020/12/13 06:49:11;;;;;;;28.67;13.45;;;13.90;62.10;;;;;;6243119;23;20264;-69
2020/12/13 06:51:39;;;;;;;25.90;13.05;;;14.00;62.10;;;;;;6243782;23;20086;-67
2020/12/13 06:54:07;;;;;;;30.77;14.30;;;14.00;62.10;;;;;;6243644;23;20058;-68
2020/12/13 06:56:34;;;;;;;28.58;13.40;;;;;;;;;;6243722;23;20132;-68
2020/12/13 06:59:01;;;;;;;33.05;14.70;;;13.90;62.20;;;;;;6243149;23;20098;-68
2020/12/13 07:01:37;;;;;;;32.63;13.60;;;14.00;62.10;;;;;;6243653;23;20019;-68
2020/12/13 07:04:35;;;;;;;29.60;15.43;;;13.90;62.00;;;;;;6216266;23;20004;-70
2020/12/13 07:07:14;;;;;;;26.85;13.88;;;;;;;;;;6092023;23;20010;-69
2020/12/13 07:09:40;;;;;;;26.13;13.98;;;;;;;;;;6091182;23;20083;-68
2020/12/13 07:12:07;;;;;;;27.45;14.60;;;;;;;;;;6091833;23;20440;-68
2020/12/13 07:14:36;;;;;;;24.70;14.20;;;;;;;;;;6091873;23;20019;-70
2020/12/13 07:19:33;;;;;;;30.23;14.40;;;13.90;62.00;;;;;;6091474;23;20094;-69
2020/12/13 07:22:06;;;;;;;29.38;13.77;;;14.00;62.20;;;;;;6091545;23;20023;-68
2020/12/13 07:24:32;;;;;;;25.17;13.90;;;;;;;;;;6064447;23;20033;-69
2020/12/13 07:26:59;;;;;;;29.75;14.63;;;13.90;62.20;;;;;;6088775;23;20054;-68
2020/12/13 07:29:25;;;;;;;;;;;13.90;62.70;;;;;;6088938;23;20534;-68
2020/12/13 07:31:52;;;;;;;30.73;13.65;;;;;;;;;;6088975;23;20405;-69
2020/12/13 07:34:18;;;;;;;38.13;14.77;;;;;;;;;;6089027;23;20041;-68
2020/12/13 07:36:45;;;;;;;27.48;14.10;;;;;;;;;;6064444;23;20021;-70
2020/12/13 07:39:13;;;;;;;29.02;13.88;;;;;;;;;;6088396;23;20595;-68
2020/12/13 07:41:43;;;;;;;33.13;14.98;;;13.80;62.40;;;;;;6087230;23;20089;-70
2020/12/13 07:44:13;;;;;;;33.22;14.93;;;13.90;62.40;;;;;;6214236;23;20437;-69
2020/12/13 07:46:40;;;;;;;32.42;15.35;;;13.90;62.40;;;;;;6243465;23;20087;-68
2020/12/13 07:49:20;;;;;;;33.10;15.05;;;13.80;62.30;;;;;;6243450;23;20032;-69
2020/12/13 07:51:51;;;;;;;32.50;15.40;;;14.00;62.30;;;;;;6241130;23;20014;-66
2020/12/13 07:54:28;;;;;;;30.08;14.93;;;13.90;62.30;;;;;;6240671;23;20008;-65
2020/12/13 07:56:59;;;;;;;32.15;14.65;;;13.90;62.40;;;;;;6240500;23;20008;-67
2020/12/13 07:59:27;;;;;;;32.25;15.38;;;14.10;62.40;;;;;;6238225;23;20637;-66
2020/12/13 08:01:58;;;;;;;32.22;14.82;;;13.80;62.40;;;;;;6219413;23;20024;-66
2020/12/13 08:04:41;;;;;;;32.05;14.90;;;13.70;62.90;;;;;;6241748;22;20007;-67
2020/12/13 08:07:12;;;;;;;34.50;14.23;;;13.60;63.10;;;;;;6243099;22;20012;-68
2020/12/13 08:09:41;;;;;;;31.42;14.80;;;;;;;;;;6242317;23;20010;-67
2020/12/13 08:12:08;;;;;;;33.05;15.50;;;;;;;;;;6249069;22;20436;-66
2020/12/13 08:14:34;;;;;;;29.85;14.70;;;;;;;;;;6243381;23;20102;-68
2020/12/13 08:17:00;;;;;;;36.35;15.88;;;;;;;;;;6245094;23;20016;-67
2020/12/13 08:19:42;;;;;;;33.95;14.05;;;13.80;62.20;;;;;;6244824;22;20443;-67
2020/12/13 08:22:22;;;;;;;33.00;16.25;;;13.80;62.80;;;;;;6244985;22;20042;-67
2020/12/13 08:25:05;;;;;;;41.17;17.10;;;13.80;62.70;;;;;;6244973;22;20005;-68
2020/12/13 08:27:33;;;;;;;37.20;15.77;;;13.90;62.60;;;;;;6245318;22;20026;-70
2020/12/13 08:30:00;;;;;;;35.20;16.73;;;14.00;62.50;;;;;;6245110;22;20062;-67
2020/12/13 08:32:34;;;;;;;;;;;13.90;62.90;;;;;;6245962;22;20067;-67
2020/12/13 08:35:08;;;;;;;49.17;18.92;;;13.80;62.60;;;;;;6245140;23;19958;-68
2020/12/13 08:37:35;;;;;;;36.28;18.25;;;;;;;;;;6245250;22;20024;-68
2020/12/13 08:40:01;;;;;;;50.40;19.10;;;;;;;;;;6245055;23;20008;-65
2020/12/13 08:42:27;;;;;;;35.20;16.15;;;;;;;;;;6244499;22;20527;-67
2020/12/13 08:44:53;;;;;;;42.13;17.83;;;;;;;;;;6245098;23;20017;-68
2020/12/13 08:47:20;;;;;;;39.63;18.45;;;;;;;;;;6244579;23;20433;-67
2020/12/13 08:49:49;;;;;;;41.80;17.63;;;13.20;63.80;;;;;;6244892;22;20012;-68
2020/12/13 08:52:20;;;;;;;38.30;17.17;;;13.30;63.40;;;;;;6244989;22;20058;-68
2020/12/13 08:54:47;;;;;;;39.13;16.98;;;;;;;;;;6244936;23;20008;-68
2020/12/13 08:57:13;;;;;;;21.73;12.13;;;;;;;;;;6242239;23;20090;-68
2020/12/13 08:59:39;;;;;;;34.83;12.95;;;;;;;;;;6243945;23;20008;-68
2020/12/13 09:02:05;;;;;;;34.60;14.40;;;;;;;;;;6244531;23;20415;-67
2020/12/13 09:04:33;;;;;;;28.85;12.88;;;;;;;;;;6244368;23;20008;-67
2020/12/13 09:07:01;;;;;;;26.88;12.13;;;13.20;63.30;;;;;;6244450;23;20026;-67
2020/12/13 09:09:32;;;;;;;30.85;12.25;;;13.30;63.00;;;;;;6243846;23;20440;-66
2020/12/13 09:11:59;;;;;;;32.72;10.50;;;13.10;62.90;;;;;;6244520;23;20004;-67
2020/12/13 09:14:30;;;;;;;26.58;9.57;;;12.90;63.60;;;;;;6244338;23;20066;-67
2020/12/13 09:16:57;;;;;;;22.45;10.23;;;12.80;64.10;;;;;;6217110;23;20004;-67
2020/12/13 09:19:24;;;;;;;22.83;9.48;;;;;;;;;;6244730;23;20005;-67
2020/12/13 09:21:56;;;;;;;25.23;9.82;;;12.70;63.80;;;;;;6243913;23;20008;-68
2020/12/13 09:24:27;;;;;;;20.63;8.85;;;12.80;63.60;;;;;;6244474;23;20004;-67
2020/12/13 09:27:02;;;;;;;17.60;8.50;;;12.70;63.70;;;;;;6244111;23;20004;-68
2020/12/13 09:29:29;;;;;;;19.30;7.53;;;12.70;63.40;;;;;;6243782;23;20012;-68
2020/12/13 09:31:55;;;;;;;;;;;12.70;63.80;;;;;;6218224;23;20095;-68
2020/12/13 09:34:22;;;;;;;17.70;7.43;;;12.50;63.80;;;;;;6244266;23;20273;-69
2020/12/13 09:36:57;;;;;;;14.80;7.03;;;12.60;63.90;;;;;;6243972;23;20096;-68
2020/12/13 09:39:23;;;;;;;20.98;7.63;;;;;;;;;;6244171;23;20028;-68
2020/12/13 09:41:50;;;;;;;19.05;6.50;;;;;;;;;;6244472;23;20046;-67
2020/12/13 09:44:16;;;;;;;17.77;7.50;;;;;;;;;;6244102;23;20028;-68
2020/12/13 09:46:42;;;;;;;21.13;7.65;;;;;;;;;;6243741;23;20087;-69
2020/12/13 09:49:09;;;;;;;21.60;7.28;;;;;;;;;;6244032;23;20005;-69
2020/12/13 09:51:35;;;;;;;17.90;6.85;;;;;;;;;;6244228;23;20083;-68
2020/12/13 09:54:01;;;;;;;16.92;6.15;;;;;;;;;;6243839;23;20306;-68
2020/12/13 09:56:27;;;;;;;21.98;7.05;;;;;;;;;;6244017;23;20070;-68
2020/12/13 09:58:54;;;;;;;12.68;6.82;;;;;;;;;;6243257;23;20306;-67
2020/12/13 10:01:20;;;;;;;21.13;5.68;;;;;;;;;;6243857;23;20019;-69
2020/12/13 10:03:50;;;;;;;14.30;5.93;;;;;;;;;;6243739;23;20425;-69
2020/12/13 10:06:31;;;;;;;19.08;6.43;;;;;;;;;;6244599;23;20007;-68
2020/12/13 10:09:02;;;;;;;27.02;5.82;;;;;;;;;;6244570;23;20015;-67
2020/12/13 10:11:29;;;;;;;14.43;6.15;;;12.90;61.60;;;;;;6244298;23;20302;-69
2020/12/13 10:13:56;;;;;;;18.52;6.05;;;13.00;61.60;;;;;;6243455;23;20416;-70
2020/12/13 10:16:23;;;;;;;;;;;12.90;62.00;;;;;;6244014;23;20011;-69
2020/12/13 10:18:49;;;;;;;13.80;5.35;;;;;;;;;;6243672;23;19927;-68
2020/12/13 10:21:24;;;;;;;16.30;6.43;;;13.10;61.20;;;;;;6243928;23;20012;-69
2020/12/13 10:23:50;;;;;;;21.17;6.10;;;;;;;;;;6216775;23;20004;-69
2020/12/13 10:26:17;;;;;;;18.55;5.68;;;;;;;;;;6215577;23;20325;-69
2020/12/13 10:28:43;;;;;;;12.30;5.40;;;;;;;;;;6243656;23;20023;-68
2020/12/13 10:31:11;;;;;;;19.98;6.32;;;;;;;;;;6244395;23;20012;-70
2020/12/13 10:33:41;;;;;;;13.68;5.50;;;13.20;60.90;;;;;;6243671;23;20004;-68
2020/12/13 10:36:08;;;;;;;14.93;5.78;;;13.20;60.60;;;;;;6243364;23;20014;-69
2020/12/13 10:38:34;;;;;;;18.60;5.75;;;13.30;60.60;;;;;;6243278;23;20062;-68
2020/12/13 10:41:01;;;;;;;11.52;5.05;;;;;;;;;;6243020;23;20012;-68
2020/12/13 10:43:27;;;;;;;14.73;5.32;;;;;;;;;;6243336;23;20087;-68
2020/12/13 10:45:53;;;;;;;24.17;5.72;;;;;;;;;;6242967;23;20019;-69
2020/12/13 10:48:19;;;;;;;19.65;6.05;;;;;;;;;;6242906;23;20011;-70
2020/12/13 10:50:46;;;;;;;17.73;5.60;;;;;;;;;;6242807;23;20008;-69
2020/12/13 10:53:12;;;;;;;9.95;4.90;;;;;;;;;;6242870;23;20019;-67
2020/12/13 10:55:38;;;;;;;13.32;5.15;;;;;;;;;;6242464;23;20079;-69
2020/12/13 10:58:05;;;;;;;12.65;5.82;;;;;;;;;;6242824;23;20012;-68
2020/12/13 11:00:31;;;;;;;18.77;6.75;;;;;;;;;;6242528;23;20009;-69
2020/12/13 11:02:57;;;;;;;16.80;5.78;;;;;;;;;;6242111;23;20027;-70
2020/12/13 11:05:23;;;;;;;16.88;5.53;;;;;;;;;;6215573;23;20008;-69
2020/12/13 11:07:50;;;;;;;20.40;5.95;;;;;;;;;;6215526;23;20040;-69
2020/12/13 11:10:16;;;;;;;14.50;5.38;;;;;;;;;;6242312;23;20012;-68
2020/12/13 11:12:42;;;;;;;15.60;6.00;;;;;;;;;;6242507;23;20056;-69
2020/12/13 11:15:09;;;;;;;12.10;4.75;;;;;;;;;;6242445;23;20084;-68
2020/12/13 11:17:35;;;;;;;8.10;4.32;;;;;;;;;;6242168;23;20485;-69
2020/12/13 11:20:04;;;;;;;13.88;4.95;;;13.30;59.60;;;;;;6242622;23;20314;-67
2020/12/13 11:22:31;;;;;;;11.88;4.70;;;;;;;;;;6242254;23;20338;-67
2020/12/13 11:24:59;;;;;;;11.55;4.25;;;;;;;;;;6242145;23;20000;-69
2020/12/13 11:27:25;;;;;;;16.67;4.93;;;;;;;;;;6242708;23;20050;-68
2020/12/13 11:29:51;;;;;;;13.48;5.18;;;;;;;;;;6214666;23;20038;-67
2020/12/13 11:32:18;;;;;;;12.80;4.60;;;;;;;;;;6216034;23;20009;-68
2020/12/13 11:34:44;;;;;;;15.15;4.65;;;;;;;;;;6242439;23;20045;-67
2020/12/13 11:37:10;;;;;;;12.77;4.50;;;;;;;;;;6215342;23;20096;-67
2020/12/13 11:39:37;;;;;;;14.05;4.95;;;;;;;;;;6241818;23;20008;-68
2020/12/13 11:42:04;;;;;;;14.90;4.47;;;14.30;55.50;;;;;;6241842;23;20023;-67
2020/12/13 11:44:30;;;;;;;16.65;4.68;;;;;;;;;;6241675;23;20091;-68
2020/12/13 11:46:56;;;;;;;10.48;4.75;;;;;;;;;;6242008;23;20044;-69
2020/12/13 11:49:23;;;;;;;11.32;4.25;;;;;;;;;;6215006;23;20393;-67
2020/12/13 11:51:49;;;;;;;7.05;3.85;;;;;;;;;;6242120;23;20008;-67
2020/12/13 11:54:15;;;;;;;20.73;4.43;;;;;;;;;;6242245;23;20079;-67
2020/12/13 11:56:42;;;;;;;9.40;4.10;;;14.70;53.70;;;;;;6242475;23;20077;-68
2020/12/13 11:59:09;;;;;;;9.50;4.60;;;;;;;;;;6241750;23;20027;-67
2020/12/13 12:01:35;;;;;;;12.27;4.63;;;;;;;;;;6192131;23;20495;-66
2020/12/13 12:04:02;;;;;;;12.02;4.57;;;;;;;;;;6240034;23;20145;-67
2020/12/13 12:06:28;;;;;;;;;;;14.90;52.60;;;;;;6213561;23;20019;-70
2020/12/13 12:08:54;;;;;;;;;;;14.90;53.50;;;;;;6240435;23;19994;-67
2020/12/13 12:11:22;;;;;;;10.57;4.38;;;14.70;52.30;;;;;;6240262;23;20030;-67
2020/12/13 12:13:48;;;;;;;15.00;4.68;;;;;;;;;;6239773;23;20015;-66
2020/12/13 12:16:23;;;;;;;15.15;4.25;;;14.20;53.40;;;;;;6238918;23;20008;-66
2020/12/13 12:18:50;;;;;;;10.60;4.30;;;;;;;;;;6239623;23;20047;-66
2020/12/13 12:21:18;;;;;;;13.45;5.07;;;;;;;;;;6239029;23;20012;-66
2020/12/13 12:23:44;;;;;;;12.82;5.65;;;;;;;;;;6240017;23;20016;-65
2020/12/13 12:26:10;;;;;;;11.45;5.28;;;;;;;;;;6239414;23;20016;-68
2020/12/13 12:28:36;;;;;;;18.42;6.20;;;;;;;;;;6238467;22;20084;-66
2020/12/13 12:31:03;;;;;;;21.65;6.20;;;;;;;;;;6239677;23;20019;-67
2020/12/13 12:33:29;;;;;;;22.55;7.82;;;;;;;;;;6239089;23;20016;-68
2020/12/13 12:35:55;;;;;;;25.60;6.55;;;;;;;;;;6239228;23;20011;-66
2020/12/13 12:38:22;;;;;;;20.95;6.38;;;;;;;;;;6239313;23;20015;-67
2020/12/13 12:40:48;;;;;;;;;;;14.30;53.40;;;;;;6212307;23;20440;-69
2020/12/13 12:43:14;;;;;;;21.23;5.90;;;;;;;;;;6239731;23;19919;-66
2020/12/13 12:45:40;;;;;;;17.58;5.15;;;;;;;;;;6239799;23;20087;-67
2020/12/13 12:48:06;;;;;;;13.23;5.00;;;;;;;;;;6239021;23;20040;-67
2020/12/13 12:50:36;;;;;;;17.80;5.90;;;;;;;;;;6240057;23;20070;-66
2020/12/13 12:53:03;;;;;;;16.08;5.20;;;14.10;54.40;;;;;;6240607;23;20012;-66
2020/12/13 12:55:32;;;;;;;17.52;5.70;;;;;;;;;;6241245;23;20035;-66
2020/12/13 12:58:01;;;;;;;15.63;6.80;;;;;;;;;;6241135;23;20008;-66
2020/12/13 13:03:00;;;;;;;18.05;4.95;;;;;;;;;;6240107;23;20047;-66
2020/12/13 13:05:37;;;;;;;19.10;5.53;;;;;;;;;;6240876;23;20004;-66
2020/12/13 13:08:12;;;;;;;14.57;4.53;;;;;;;;;;6240354;23;20038;-66
2020/12/13 13:10:40;;;;;;;22.08;5.00;;;;;;;;;;6240689;23;20044;-68
2020/12/13 13:13:07;;;;;;;17.23;4.88;;;;;;;;;;6241039;23;20090;-67
2020/12/13 13:15:46;;;;;;;15.45;4.20;;;;;;;;;;6240553;23;20019;-66
2020/12/13 13:18:12;;;;;;;15.57;4.38;;;14.70;51.50;;;;;;6240291;23;20012;-67
2020/12/13 13:20:41;;;;;;;18.15;5.03;;;14.90;50.40;;;;;;6240687;23;20008;-65
2020/12/13 13:23:07;;;;;;;15.93;4.95;;;;;;;;;;6240890;23;20008;-67
2020/12/13 13:25:34;;;;;;;13.23;4.55;;;;;;;;;;6240938;23;20043;-68
2020/12/13 13:28:00;;;;;;;14.27;4.30;;;;;;;;;;6213143;23;20983;-67
2020/12/13 13:30:26;;;;;;;14.30;4.38;;;;;;;;;;6240859;23;20097;-66
2020/12/13 13:32:53;;;;;;;17.60;4.68;;;;;;;;;;6240454;23;20004;-68
2020/12/13 13:35:19;;;;;;;18.75;4.25;;;;;;;;;;6240377;23;20016;-67
2020/12/13 13:37:46;;;;;;;12.55;4.22;;;;;;;;;;6240641;23;20020;-66
2020/12/13 13:40:12;;;;;;;17.98;4.20;;;;;;;;;;6240550;23;20039;-68
2020/12/13 13:42:38;;;;;;;11.45;3.58;;;;;;;;;;6240970;23;20010;-68
2020/12/13 13:45:15;;;;;;;12.13;3.55;;;;;;;;;;6213810;23;20015;-66
2020/12/13 13:50:14;;;;;;;12.00;3.45;;;;;;;;;;6216774;23;20429;-68
2020/12/13 13:52:40;;;;;;;11.30;3.55;;;;;;;;;;6240394;23;20062;-68
2020/12/13 13:55:18;;;;;;;8.45;4.28;;;;;;;;;;6241330;23;20004;-67
2020/12/13 13:57:46;;;;;;;15.50;3.78;;;;;;;;;;6241116;23;20016;-67
2020/12/13 14:00:12;;;;;;;12.68;3.75;;;;;;;;;;6241170;23;20016;-66